Time;durP1;ratioP1;P1;durP2;ratioP2;P2;SDS_P1;SDS_P2;PMS_P1;PMS_P2;Temp;Humidity;BMP_temperature;BMP_pressure;BME280_temperature;BME280_humidity;BME280_pressure;Samples;Min_cycle;Max_cycle;Signal;HPM_P1;HPM_P2
2023/03/31 00:00:29;;;;;;;3.75;2.97;;;13.10;99.90;;;;;;5091849;28;20711;-76
2023/03/31 00:02:57;;;;;;;14.60;9.93;;;13.10;99.90;;;;;;5091830;28;20216;-75
2023/03/31 00:05:24;;;;;;;6.57;4.70;;;13.10;99.90;;;;;;5091659;28;20246;-76
2023/03/31 00:08:00;;;;;;;4.50;3.73;;;13.10;99.90;;;;;;5091597;28;20620;-75
2023/03/31 00:10:27;;;;;;;4.68;3.25;;;13.10;99.90;;;;;;5091753;28;20465;-76
2023/03/31 00:12:55;;;;;;;6.72;4.53;;;13.10;99.90;;;;;;5092116;28;20219;-76
2023/03/31 00:15:22;;;;;;;7.50;6.37;;;13.10;99.90;;;;;;5091536;28;20223;-76
2023/03/31 00:17:49;;;;;;;9.30;3.75;;;13.10;99.90;;;;;;5074236;28;20477;-76
2023/03/31 00:20:16;;;;;;;5.60;4.10;;;13.10;99.90;;;;;;5084421;28;20219;-76
2023/03/31 00:22:45;;;;;;;4.82;3.50;;;13.10;99.90;;;;;;5091938;28;20292;-76
2023/03/31 00:25:13;;;;;;;4.70;2.53;;;13.10;99.90;;;;;;5090071;28;20696;-75
2023/03/31 00:27:43;;;;;;;6.95;3.55;;;13.10;99.90;;;;;;5086894;28;20476;-76
2023/03/31 00:30:13;;;;;;;3.30;2.50;;;13.10;99.90;;;;;;5087404;28;20218;-76
2023/03/31 00:32:40;;;;;;;3.63;2.50;;;13.10;99.90;;;;;;5088803;28;20235;-77
2023/03/31 00:35:08;;;;;;;5.37;2.50;;;13.00;99.90;;;;;;5091010;28;20465;-75
2023/03/31 00:37:36;;;;;;;4.35;2.83;;;13.00;99.90;;;;;;5084087;28;20465;-76
2023/03/31 00:40:09;;;;;;;6.47;3.17;;;13.00;99.90;;;;;;5086615;28;20314;-76
2023/03/31 00:42:40;;;;;;;3.85;3.45;;;13.00;99.90;;;;;;5074886;28;20222;-76
2023/03/31 00:45:28;;;;;;;4.40;3.20;;;13.00;99.90;;;;;;5091271;28;20653;-76
2023/03/31 00:48:03;;;;;;;5.90;2.90;;;13.00;99.90;;;;;;5091488;28;20527;-76
2023/03/31 00:50:35;;;;;;;3.08;2.13;;;13.10;99.90;;;;;;5092600;28;20214;-75
2023/03/31 00:53:06;;;;;;;4.65;2.45;;;13.10;99.90;;;;;;5094113;28;20227;-77
2023/03/31 00:55:37;;;;;;;4.07;2.05;;;13.10;99.90;;;;;;5088969;28;20693;-75
2023/03/31 00:58:07;;;;;;;8.15;4.47;;;13.00;99.90;;;;;;5093530;28;20223;-78
2023/03/31 01:00:35;;;;;;;3.13;2.73;;;13.00;99.90;;;;;;5093498;28;20215;-78
2023/03/31 01:03:08;;;;;;;4.15;1.92;;;13.00;99.90;;;;;;5091046;28;20473;-78
2023/03/31 01:05:40;;;;;;;3.97;2.15;;;13.00;99.90;;;;;;5076987;28;20231;-76
2023/03/31 01:08:07;;;;;;;4.28;3.88;;;13.00;99.90;;;;;;5077267;28;20236;-78
2023/03/31 01:10:40;;;;;;;5.15;2.75;;;13.10;99.90;;;;;;5073072;28;20224;-78
2023/03/31 01:13:11;;;;;;;4.88;2.55;;;13.10;99.90;;;;;;5074334;28;20299;-78
2023/03/31 01:15:46;;;;;;;11.48;4.75;;;13.10;99.90;;;;;;5074350;28;20587;-77
2023/03/31 01:18:19;;;;;;;6.35;3.47;;;13.00;99.90;;;;;;5062671;28;20327;-76
2023/03/31 01:21:06;;;;;;;4.70;4.13;;;13.00;99.90;;;;;;5065439;28;20250;-76
2023/03/31 01:24:08;;;;;;;7.10;4.28;;;13.00;99.90;;;;;;5073969;28;20234;-78
2023/03/31 01:27:07;;;;;;;7.60;2.75;;;12.90;99.90;;;;;;5074785;28;20224;-78
2023/03/31 01:29:55;;;;;;;7.25;3.10;;;12.90;99.90;;;;;;5073171;28;20232;-77
2023/03/31 01:33:07;;;;;;;3.67;2.60;;;12.90;99.90;;;;;;5073631;28;20227;-76
2023/03/31 01:36:05;;;;;;;18.42;13.05;;;12.80;99.90;;;;;;5058894;28;20246;-78
2023/03/31 01:39:16;;;;;;;8.85;4.55;;;12.80;99.90;;;;;;5073927;28;20219;-78
2023/03/31 01:41:52;;;;;;;3.47;2.30;;;12.80;99.90;;;;;;5086809;28;20230;-77
2023/03/31 01:44:27;;;;;;;4.50;2.65;;;12.80;99.90;;;;;;5093765;28;20292;-77
2023/03/31 01:47:00;;;;;;;3.35;1.80;;;12.80;99.90;;;;;;5093773;28;20352;-76
2023/03/31 01:49:40;;;;;;;7.47;4.68;;;12.70;99.90;;;;;;5092796;28;20240;-78
2023/03/31 01:52:16;;;;;;;3.72;2.80;;;12.70;99.90;;;;;;5093711;28;20319;-77
2023/03/31 01:54:49;;;;;;;4.25;2.63;;;12.70;99.90;;;;;;5094142;28;20725;-76
2023/03/31 01:57:22;;;;;;;3.95;2.60;;;12.70;99.90;;;;;;5093980;28;20219;-77
2023/03/31 01:59:57;;;;;;;6.53;2.50;;;12.70;99.90;;;;;;5093027;28;20238;-75
2023/03/31 02:02:28;;;;;;;7.03;4.18;;;12.70;99.90;;;;;;5092657;28;21788;-77
2023/03/31 02:05:00;;;;;;;5.70;3.35;;;12.70;99.90;;;;;;5093795;28;20227;-76
2023/03/31 02:07:32;;;;;;;6.30;1.98;;;12.70;99.90;;;;;;5093021;28;20288;-76
2023/03/31 02:10:01;;;;;;;3.65;2.40;;;12.70;99.90;;;;;;5093442;28;20713;-77
2023/03/31 02:12:33;;;;;;;3.30;1.95;;;12.70;99.90;;;;;;5092910;28;20306;-77
2023/03/31 02:15:02;;;;;;;8.00;4.90;;;12.70;99.90;;;;;;5093696;28;20548;-78
2023/03/31 02:17:31;;;;;;;2.20;2.00;;;12.60;99.90;;;;;;5093607;28;20219;-78
2023/03/31 02:20:04;;;;;;;4.00;1.67;;;12.60;99.90;;;;;;5093755;28;20613;-78
2023/03/31 02:22:36;;;;;;;4.50;1.92;;;12.70;99.90;;;;;;5093300;28;20226;-78
2023/03/31 02:25:06;;;;;;;4.65;1.85;;;12.70;99.90;;;;;;5094668;28;20268;-76
2023/03/31 02:27:37;;;;;;;4.65;2.90;;;12.70;99.90;;;;;;5092562;28;20231;-78
2023/03/31 02:30:06;;;;;;;8.40;5.45;;;12.80;99.90;;;;;;5093939;28;20219;-76
2023/03/31 02:32:37;;;;;;;10.18;4.97;;;12.80;99.90;;;;;;5092873;28;20243;-76
2023/03/31 02:35:05;;;;;;;6.88;4.57;;;12.80;99.90;;;;;;5093307;28;20231;-79
2023/03/31 02:37:33;;;;;;;5.78;3.58;;;12.90;99.90;;;;;;5092331;28;20545;-76
2023/03/31 02:40:07;;;;;;;2.30;2.10;;;12.90;99.90;;;;;;5093318;28;20211;-77
2023/03/31 02:42:36;;;;;;;1.95;1.40;;;13.00;99.90;;;;;;5092361;28;20219;-78
2023/03/31 02:45:05;;;;;;;4.68;2.35;;;13.00;99.90;;;;;;5092875;28;20684;-77
2023/03/31 02:47:33;;;;;;;4.65;2.03;;;13.00;99.90;;;;;;5092265;28;20542;-78
2023/03/31 02:50:02;;;;;;;2.13;2.03;;;13.10;99.90;;;;;;5092500;28;20283;-77
2023/03/31 02:52:50;;;;;;;2.75;2.00;;;13.10;99.90;;;;;;5092077;28;20326;-75
2023/03/31 02:55:36;;;;;;;2.05;1.48;;;13.20;99.90;;;;;;5092816;28;20227;-77
2023/03/31 02:58:28;;;;;;;1.73;1.50;;;13.20;99.90;;;;;;5072889;28;20920;-78
2023/03/31 03:01:07;;;;;;;3.63;1.70;;;13.20;99.90;;;;;;5060948;28;20277;-77
2023/03/31 03:03:43;;;;;;;3.47;2.67;;;13.20;99.90;;;;;;5073054;28;20222;-75
2023/03/31 03:06:26;;;;;;;2.35;1.85;;;13.20;99.90;;;;;;5101045;28;20219;-77
2023/03/31 03:09:07;;;;;;;1.88;1.70;;;13.20;99.90;;;;;;5091937;28;20227;-77
2023/03/31 03:11:44;;;;;;;3.10;1.65;;;13.20;99.90;;;;;;5092660;28;20306;-77
2023/03/31 03:14:20;;;;;;;2.85;1.60;;;13.20;99.90;;;;;;5092615;28;20226;-77
2023/03/31 03:16:50;;;;;;;1.65;1.40;;;13.20;99.90;;;;;;5092489;28;20219;-75
2023/03/31 03:19:20;;;;;;;5.47;1.75;;;13.20;99.90;;;;;;5091187;28;20223;-77
2023/03/31 03:21:47;;;;;;;2.92;1.80;;;13.20;99.90;;;;;;5092241;28;20284;-75
2023/03/31 03:24:15;;;;;;;2.70;1.45;;;13.20;99.90;;;;;;5092174;28;20299;-76
2023/03/31 03:26:43;;;;;;;8.97;2.30;;;13.20;99.90;;;;;;5091344;28;20239;-75
2023/03/31 03:29:13;;;;;;;2.72;1.88;;;13.20;99.90;;;;;;5092332;28;20813;-76
2023/03/31 03:31:40;;;;;;;2.00;1.55;;;13.20;99.90;;;;;;5092199;28;20262;-77
2023/03/31 03:34:08;;;;;;;1.45;1.35;;;13.20;99.90;;;;;;5091979;28;20302;-77
2023/03/31 03:36:36;;;;;;;2.55;2.08;;;13.20;99.90;;;;;;5091784;28;20509;-75
2023/03/31 03:39:04;;;;;;;2.85;1.90;;;13.20;99.90;;;;;;5087057;28;20270;-75
2023/03/31 03:41:32;;;;;;;2.00;1.80;;;13.20;99.90;;;;;;5084290;28;20671;-76
2023/03/31 03:43:59;;;;;;;1.88;1.50;;;13.20;99.90;;;;;;5080690;28;20775;-75
2023/03/31 03:46:27;;;;;;;1.95;1.23;;;13.20;99.90;;;;;;5081239;28;20664;-77
2023/03/31 03:48:55;;;;;;;2.22;1.70;;;13.20;99.90;;;;;;5090895;28;20640;-75
2023/03/31 03:51:22;;;;;;;2.70;1.55;;;13.20;99.90;;;;;;5091499;28;20300;-77
2023/03/31 03:53:49;;;;;;;2.20;2.00;;;13.20;99.90;;;;;;5091165;28;20269;-76
2023/03/31 03:56:16;;;;;;;4.70;4.30;;;13.20;99.90;;;;;;5085195;28;20243;-77
2023/03/31 03:58:43;;;;;;;5.60;3.90;;;13.20;99.90;;;;;;5071382;28;20362;-77
2023/03/31 04:01:12;;;;;;;3.90;2.90;;;13.20;99.90;;;;;;5072103;28;20224;-75
2023/03/31 04:03:40;;;;;;;3.45;1.55;;;13.20;99.90;;;;;;5069343;28;20224;-76
2023/03/31 04:06:07;;;;;;;8.32;5.80;;;13.10;99.90;;;;;;5072219;28;20227;-76
2023/03/31 04:08:34;;;;;;;4.15;1.95;;;13.10;99.90;;;;;;5071418;28;20281;-76
2023/03/31 04:11:01;;;;;;;1.92;1.73;;;13.10;99.90;;;;;;5071921;28;20677;-76
2023/03/31 04:13:28;;;;;;;3.78;1.75;;;13.10;99.90;;;;;;5078460;28;20302;-77
2023/03/31 04:15:56;;;;;;;3.55;1.50;;;13.10;99.90;;;;;;5092174;28;20223;-76
2023/03/31 04:18:23;;;;;;;2.83;1.75;;;13.10;99.90;;;;;;5093135;28;20231;-77
2023/03/31 04:21:02;;;;;;;4.85;1.80;;;13.10;99.90;;;;;;5102498;28;20227;-75
2023/03/31 04:23:30;;;;;;;2.13;1.13;;;13.10;99.90;;;;;;5100635;28;20706;-76
2023/03/31 04:25:57;;;;;;;3.58;1.75;;;13.10;99.90;;;;;;5099223;28;20243;-76
2023/03/31 04:28:25;;;;;;;4.65;2.13;;;13.10;99.90;;;;;;5101589;28;20231;-75
2023/03/31 04:30:53;;;;;;;2.17;1.38;;;13.10;99.90;;;;;;5103115;28;20275;-77
2023/03/31 04:33:22;;;;;;;2.40;1.70;;;13.10;99.90;;;;;;5101137;28;20237;-77
2023/03/31 04:35:49;;;;;;;2.00;1.75;;;13.10;99.90;;;;;;5094804;28;20242;-77
2023/03/31 04:38:18;;;;;;;2.75;1.90;;;13.10;99.90;;;;;;5094047;28;20697;-76
2023/03/31 04:40:49;;;;;;;3.55;2.00;;;13.10;99.90;;;;;;5092985;28;20224;-76
2023/03/31 04:43:17;;;;;;;6.18;4.57;;;13.00;99.90;;;;;;5093850;28;20673;-76
2023/03/31 04:45:45;;;;;;;8.93;6.72;;;13.10;99.90;;;;;;5093327;28;20280;-76
2023/03/31 04:48:12;;;;;;;4.82;2.28;;;13.10;99.90;;;;;;5093258;28;20703;-77
2023/03/31 04:50:40;;;;;;;4.07;2.22;;;13.10;99.90;;;;;;5092932;28;20223;-76
2023/03/31 04:53:07;;;;;;;5.15;3.00;;;13.10;99.90;;;;;;5095376;28;20534;-76
2023/03/31 04:55:36;;;;;;;3.53;1.88;;;13.10;99.90;;;;;;5094661;28;20267;-76
2023/03/31 04:58:03;;;;;;;6.68;2.28;;;13.10;99.90;;;;;;5095302;28;20304;-76
2023/03/31 05:00:30;;;;;;;4.93;2.85;;;13.20;99.90;;;;;;5087130;28;20669;-76
2023/03/31 05:02:57;;;;;;;3.63;2.40;;;13.10;99.90;;;;;;5094579;28;20215;-76
2023/03/31 05:05:43;;;;;;;6.20;2.22;;;13.10;99.90;;;;;;5095405;28;20588;-76
2023/03/31 05:08:15;;;;;;;1.90;1.50;;;13.10;99.90;;;;;;5094616;28;20310;-76
2023/03/31 05:10:44;;;;;;;3.83;2.13;;;13.10;99.90;;;;;;5094567;28;20299;-76
2023/03/31 05:13:11;;;;;;;4.63;3.53;;;13.20;99.90;;;;;;5094599;28;20689;-76
2023/03/31 05:15:39;;;;;;;4.78;3.70;;;13.20;99.90;;;;;;5094692;28;20696;-75
2023/03/31 05:18:06;;;;;;;4.47;2.60;;;13.20;99.90;;;;;;5095053;28;20233;-77
2023/03/31 05:20:33;;;;;;;3.70;1.95;;;13.20;99.90;;;;;;5094413;28;20232;-77
2023/03/31 05:23:00;;;;;;;5.85;1.90;;;13.20;99.90;;;;;;5095150;28;20227;-76
2023/03/31 05:25:31;;;;;;;2.90;1.63;;;13.20;99.90;;;;;;5094507;28;20562;-77
2023/03/31 05:28:00;;;;;;;4.57;2.17;;;13.20;99.90;;;;;;5094041;28;20219;-76
2023/03/31 05:30:28;;;;;;;5.88;1.73;;;13.20;99.90;;;;;;5093650;28;20246;-77
2023/03/31 05:32:56;;;;;;;1.50;1.40;;;13.10;99.90;;;;;;5089236;28;20222;-76
2023/03/31 05:35:23;;;;;;;4.55;1.88;;;13.10;99.90;;;;;;5104623;28;20276;-77
2023/03/31 05:37:50;;;;;;;3.75;2.70;;;13.10;99.90;;;;;;5094554;28;20247;-76
2023/03/31 05:40:17;;;;;;;5.10;2.00;;;13.10;99.90;;;;;;5094387;28;20227;-75
2023/03/31 05:42:44;;;;;;;3.80;1.88;;;13.00;99.90;;;;;;5094334;28;20219;-76
2023/03/31 05:45:13;;;;;;;3.80;2.47;;;13.00;99.90;;;;;;5094587;28;20302;-76
2023/03/31 05:47:40;;;;;;;3.03;2.25;;;13.00;99.90;;;;;;5093833;28;20227;-77
2023/03/31 05:50:08;;;;;;;3.40;1.80;;;13.00;99.90;;;;;;5094296;28;20223;-77
2023/03/31 05:52:35;;;;;;;7.07;4.55;;;12.90;99.90;;;;;;5093462;28;20231;-77
2023/03/31 05:55:03;;;;;;;3.28;1.80;;;13.00;99.90;;;;;;5094451;28;20248;-76
2023/03/31 05:57:30;;;;;;;6.18;5.57;;;13.00;99.90;;;;;;5093438;28;20216;-77
2023/03/31 05:59:57;;;;;;;6.38;2.35;;;13.10;99.90;;;;;;5093430;28;20223;-75
2023/03/31 06:02:26;;;;;;;3.72;2.50;;;13.10;99.90;;;;;;5094297;28;20223;-76
2023/03/31 06:05:05;;;;;;;8.18;2.72;;;13.10;99.90;;;;;;5093632;28;20253;-76
2023/03/31 06:07:32;;;;;;;10.65;5.53;;;13.10;99.90;;;;;;5093555;28;20238;-76
2023/03/31 06:09:59;;;;;;;3.38;2.13;;;13.10;99.90;;;;;;5094401;28;20235;-75
2023/03/31 06:12:36;;;;;;;2.15;1.35;;;13.10;99.90;;;;;;5088554;28;20226;-76
2023/03/31 06:15:03;;;;;;;4.82;1.85;;;13.10;99.90;;;;;;5100193;28;20318;-76
2023/03/31 06:17:31;;;;;;;3.17;1.75;;;13.10;99.90;;;;;;5094009;28;20227;-76
2023/03/31 06:19:58;;;;;;;5.82;4.15;;;13.20;99.90;;;;;;5093045;28;20239;-76
2023/03/31 06:22:28;;;;;;;4.88;2.58;;;13.20;99.90;;;;;;5093728;28;20228;-76
2023/03/31 06:24:55;;;;;;;6.45;2.20;;;13.20;99.90;;;;;;5093279;28;20230;-76
2023/03/31 06:27:22;;;;;;;5.35;3.63;;;13.20;99.90;;;;;;5093643;28;20227;-76
2023/03/31 06:29:49;;;;;;;6.88;2.75;;;13.20;99.90;;;;;;5092921;28;20277;-76
2023/03/31 06:32:16;;;;;;;7.30;2.42;;;13.20;99.90;;;;;;5093544;28;20229;-75
2023/03/31 06:34:45;;;;;;;3.20;1.83;;;13.30;99.90;;;;;;5092438;28;20756;-76
2023/03/31 06:37:12;;;;;;;3.30;2.70;;;13.30;99.90;;;;;;5093053;28;20461;-76
2023/03/31 06:39:39;;;;;;;3.70;2.13;;;13.40;99.90;;;;;;5093234;28;20568;-76
2023/03/31 06:42:06;;;;;;;6.40;2.40;;;13.40;99.90;;;;;;5092638;28;20230;-77
2023/03/31 06:44:33;;;;;;;4.78;3.85;;;13.40;99.90;;;;;;5093707;28;20223;-76
2023/03/31 06:47:00;;;;;;;4.40;2.95;;;13.40;99.90;;;;;;5092039;28;20281;-77
2023/03/31 06:49:27;;;;;;;6.22;3.17;;;13.50;99.90;;;;;;5093777;28;20242;-76
2023/03/31 06:51:55;;;;;;;3.92;2.92;;;13.50;99.90;;;;;;5093474;28;20560;-77
2023/03/31 06:54:22;;;;;;;3.95;2.40;;;13.60;99.90;;;;;;5094238;28;20232;-77
2023/03/31 06:56:49;;;;;;;3.45;2.50;;;13.60;99.90;;;;;;5093951;28;20227;-77
2023/03/31 06:59:16;;;;;;;3.40;2.50;;;13.60;99.90;;;;;;5094843;28;20227;-76
2023/03/31 07:01:44;;;;;;;4.40;3.17;;;13.70;99.90;;;;;;5094589;28;20466;-77
2023/03/31 07:04:11;;;;;;;3.17;2.50;;;13.70;99.90;;;;;;5093395;28;20453;-76
2023/03/31 07:06:38;;;;;;;4.43;3.53;;;13.70;99.90;;;;;;5093464;28;20224;-76
2023/03/31 07:09:07;;;;;;;5.10;3.40;;;13.70;99.90;;;;;;5092116;28;21016;-75
2023/03/31 07:11:34;;;;;;;4.70;3.23;;;13.70;99.90;;;;;;5092971;28;20291;-76
2023/03/31 07:14:10;;;;;;;2.67;2.10;;;13.70;99.90;;;;;;5092357;28;20469;-76
2023/03/31 07:16:37;;;;;;;7.20;3.00;;;13.80;99.90;;;;;;5093014;28;20506;-76
2023/03/31 07:19:04;;;;;;;4.60;3.20;;;13.80;99.90;;;;;;5091897;28;20762;-76
2023/03/31 07:21:31;;;;;;;10.83;6.53;;;13.80;99.90;;;;;;5092997;28;20485;-76
2023/03/31 07:24:01;;;;;;;4.80;3.10;;;13.90;99.90;;;;;;5092354;28;20465;-76
2023/03/31 07:26:30;;;;;;;29.27;15.17;;;13.90;99.90;;;;;;5092875;28;20473;-76
2023/03/31 07:28:57;;;;;;;8.10;5.20;;;14.00;99.90;;;;;;5092025;28;20469;-76
2023/03/31 07:31:25;;;;;;;8.30;3.60;;;14.00;99.90;;;;;;5093059;28;20578;-76
2023/03/31 07:33:52;;;;;;;19.52;10.43;;;14.10;99.90;;;;;;5092944;28;20983;-76
2023/03/31 07:36:20;;;;;;;4.80;4.00;;;14.10;99.90;;;;;;5092006;28;20223;-76
2023/03/31 07:38:48;;;;;;;5.53;3.10;;;14.20;99.90;;;;;;5092195;28;20974;-76
2023/03/31 07:41:17;;;;;;;4.70;2.53;;;14.30;99.90;;;;;;5091241;28;20473;-76
2023/03/31 07:43:46;;;;;;;6.80;2.60;;;14.40;99.90;;;;;;5092577;28;20505;-77
2023/03/31 07:46:18;;;;;;;9.43;5.40;;;14.50;99.90;;;;;;5091695;28;20999;-76
2023/03/31 07:48:46;;;;;;;6.70;4.80;;;14.50;99.90;;;;;;5092307;28;20470;-76
2023/03/31 07:51:14;;;;;;;4.03;3.70;;;14.60;99.90;;;;;;5092190;28;21152;-76
2023/03/31 07:53:41;;;;;;;6.30;3.90;;;14.70;99.90;;;;;;5095096;28;20476;-76
2023/03/31 07:56:12;;;;;;;5.67;5.13;;;14.70;99.90;;;;;;5092226;28;20465;-75
2023/03/31 07:58:39;;;;;;;8.70;5.80;;;14.80;99.90;;;;;;5089879;28;20875;-76
2023/03/31 08:01:08;;;;;;;6.53;5.17;;;14.80;99.90;;;;;;5096107;28;20491;-77
2023/03/31 08:03:35;;;;;;;5.00;3.40;;;14.90;99.90;;;;;;5087739;28;20553;-76
2023/03/31 08:06:02;;;;;;;34.10;18.87;;;15.00;99.90;;;;;;5096072;28;20470;-77
2023/03/31 08:08:29;;;;;;;7.50;4.43;;;15.00;99.90;;;;;;5096741;28;20465;-76
2023/03/31 08:10:57;;;;;;;5.73;4.73;;;15.10;99.90;;;;;;5096031;28;20461;-77
2023/03/31 08:13:24;;;;;;;3.00;2.70;;;15.20;99.90;;;;;;5096493;28;20469;-77
2023/03/31 08:15:53;;;;;;;3.60;2.70;;;15.20;99.90;;;;;;5095213;28;20552;-76
2023/03/31 08:18:24;;;;;;;6.07;3.33;;;15.30;99.90;;;;;;5096240;28;20798;-77
2023/03/31 08:20:51;;;;;;;5.60;2.03;;;15.30;99.90;;;;;;5095769;28;21076;-77
2023/03/31 08:23:18;;;;;;;5.07;2.40;;;15.40;99.90;;;;;;5095568;28;20465;-77
2023/03/31 08:25:46;;;;;;;4.10;2.20;;;15.40;99.90;;;;;;5095810;28;20466;-77
2023/03/31 08:28:13;;;;;;;5.53;1.93;;;15.50;99.90;;;;;;5095691;28;20469;-77
2023/03/31 08:30:41;;;;;;;3.07;2.17;;;15.50;99.90;;;;;;5095859;28;20480;-77
2023/03/31 08:33:11;;;;;;;7.63;2.13;;;15.60;99.90;;;;;;5095236;28;20465;-77
2023/03/31 08:35:40;;;;;;;2.87;1.77;;;15.60;99.90;;;;;;5095860;28;20488;-77
2023/03/31 08:38:08;;;;;;;4.03;2.90;;;15.70;99.90;;;;;;5095544;28;20473;-78
2023/03/31 08:40:35;;;;;;;3.47;1.97;;;15.70;99.90;;;;;;5096070;28;20466;-77
2023/03/31 08:43:08;;;;;;;3.97;2.70;;;15.80;99.90;;;;;;5095326;28;20465;-77
2023/03/31 08:45:39;;;;;;;4.03;2.10;;;15.90;99.90;;;;;;5095743;28;20462;-77
2023/03/31 08:48:12;;;;;;;2.47;1.53;;;16.00;99.90;;;;;;5095079;28;20477;-77
2023/03/31 08:50:46;;;;;;;2.70;1.60;;;16.10;99.90;;;;;;5095973;28;20465;-77
2023/03/31 08:53:23;;;;;;;5.47;2.20;;;16.20;99.90;;;;;;5095268;28;20986;-77
2023/03/31 08:55:52;;;;;;;4.10;2.60;;;16.20;99.90;;;;;;5095947;28;20488;-76
2023/03/31 08:58:33;;;;;;;4.10;2.17;;;16.30;99.90;;;;;;5095140;28;20461;-77
2023/03/31 09:01:07;;;;;;;9.80;6.33;;;16.30;99.90;;;;;;5095555;28;20487;-77
2023/03/31 09:03:40;;;;;;;7.83;4.97;;;16.40;99.90;;;;;;5095384;28;20465;-76
2023/03/31 09:06:14;;;;;;;6.70;5.70;;;16.40;99.90;;;;;;5095182;28;20462;-77
2023/03/31 09:08:43;;;;;;;11.30;7.50;;;16.50;99.90;;;;;;5095821;28;20973;-77
2023/03/31 09:11:21;;;;;;;8.27;4.60;;;16.40;99.90;;;;;;5094001;28;20489;-77
2023/03/31 09:14:15;;;;;;;9.07;4.50;;;16.40;99.90;;;;;;5095105;28;20538;-77
2023/03/31 09:16:48;;;;;;;5.50;3.13;;;16.40;99.90;;;;;;5095249;28;20474;-76
2023/03/31 09:19:20;;;;;;;5.83;3.00;;;16.40;99.90;;;;;;5094830;28;20579;-77
2023/03/31 09:21:53;;;;;;;5.93;4.10;;;16.50;99.90;;;;;;5094281;28;20576;-77
2023/03/31 09:24:23;;;;;;;3.67;2.83;;;16.40;99.90;;;;;;5095481;28;20756;-78
2023/03/31 09:26:54;;;;;;;4.90;3.00;;;16.50;99.90;;;;;;5094649;28;20457;-77
2023/03/31 09:29:28;;;;;;;5.20;2.67;;;16.50;99.90;;;;;;5094931;28;20474;-75
2023/03/31 09:32:01;;;;;;;6.43;4.60;;;16.50;99.90;;;;;;5094313;28;20475;-76
2023/03/31 09:34:32;;;;;;;8.00;3.87;;;16.60;99.90;;;;;;5095340;28;20465;-75
2023/03/31 09:37:00;;;;;;;4.77;3.83;;;16.60;99.90;;;;;;5094744;28;20477;-76
2023/03/31 09:39:28;;;;;;;9.33;4.40;;;16.70;99.90;;;;;;5099985;28;20473;-76
2023/03/31 09:41:55;;;;;;;12.93;6.40;;;16.70;99.90;;;;;;5095179;28;20504;-75
2023/03/31 09:44:29;;;;;;;7.40;2.87;;;16.70;99.90;;;;;;5094941;28;20473;-76
2023/03/31 09:46:58;;;;;;;5.27;3.20;;;16.70;99.90;;;;;;5094329;28;20466;-76
2023/03/31 09:49:29;;;;;;;6.67;4.27;;;16.70;99.90;;;;;;5094527;28;20475;-76
2023/03/31 09:52:05;;;;;;;9.23;4.37;;;16.80;99.90;;;;;;5093819;28;20495;-76
2023/03/31 09:54:39;;;;;;;4.10;2.00;;;16.80;99.90;;;;;;5093550;28;20488;-77
2023/03/31 09:57:15;;;;;;;6.33;2.30;;;16.80;99.90;;;;;;5094429;28;20464;-77
2023/03/31 09:59:42;;;;;;;5.53;2.00;;;16.70;99.90;;;;;;5095044;28;20473;-77
2023/03/31 10:02:35;;;;;;;2.13;1.50;;;16.70;99.90;;;;;;5093865;28;20465;-77
2023/03/31 10:05:03;;;;;;;3.90;1.83;;;16.70;99.90;;;;;;5094061;28;20457;-77
2023/03/31 10:07:33;;;;;;;2.00;1.90;;;16.70;99.90;;;;;;5093593;28;20465;-77
2023/03/31 10:10:01;;;;;;;2.70;1.60;;;16.60;99.90;;;;;;5083006;28;20470;-77
2023/03/31 10:12:30;;;;;;;4.60;1.93;;;16.60;99.90;;;;;;5108710;28;20484;-77
2023/03/31 10:15:21;;;;;;;3.50;1.80;;;16.50;99.90;;;;;;5094374;28;20470;-76
2023/03/31 10:17:50;;;;;;;4.97;3.63;;;16.50;99.90;;;;;;5094377;28;20461;-77
2023/03/31 10:20:34;;;;;;;9.97;3.63;;;16.50;99.90;;;;;;5093249;28;20465;-76
2023/03/31 10:23:18;;;;;;;7.73;4.60;;;16.30;99.90;;;;;;5093292;28;20503;-77
2023/03/31 10:25:47;;;;;;;5.03;3.40;;;16.30;99.90;;;;;;5094038;28;20493;-77
2023/03/31 10:28:18;;;;;;;4.20;3.23;;;16.20;99.90;;;;;;5093052;28;20514;-77
2023/03/31 10:30:49;;;;;;;10.70;2.70;;;16.10;99.90;;;;;;5093711;28;20466;-77
2023/03/31 10:33:21;;;;;;;6.23;2.60;;;16.00;99.90;;;;;;5092803;28;20466;-77
2023/03/31 10:35:50;;;;;;;3.27;2.97;;;16.00;99.90;;;;;;5093844;28;20866;-77
2023/03/31 10:38:28;;;;;;;3.63;3.10;;;16.00;99.90;;;;;;5092881;28;20544;-76
2023/03/31 10:40:57;;;;;;;3.87;3.57;;;16.00;99.90;;;;;;5093982;28;20481;-77
2023/03/31 10:43:28;;;;;;;4.90;2.90;;;16.00;99.90;;;;;;5093029;28;20935;-77
2023/03/31 10:45:56;;;;;;;3.73;2.53;;;16.10;99.90;;;;;;5093844;28;20561;-76
2023/03/31 10:48:31;;;;;;;5.40;3.37;;;16.10;99.90;;;;;;5091995;28;20469;-77
2023/03/31 10:51:12;;;;;;;4.80;2.90;;;16.10;99.90;;;;;;5093240;28;20823;-76
2023/03/31 10:53:46;;;;;;;10.20;3.60;;;16.10;99.90;;;;;;5093312;28;20484;-76
2023/03/31 10:56:37;;;;;;;6.40;3.53;;;16.10;99.90;;;;;;5093078;28;20954;-76
2023/03/31 10:59:43;;;;;;;4.80;3.10;;;16.10;99.90;;;;;;5092542;28;20491;-76
2023/03/31 11:02:34;;;;;;;4.70;3.33;;;16.20;99.90;;;;;;5077052;28;20805;-77
2023/03/31 11:05:13;;;;;;;6.97;3.97;;;16.20;99.90;;;;;;5091246;28;20465;-77
2023/03/31 11:07:50;;;;;;;3.90;2.57;;;16.30;99.90;;;;;;5092820;28;20541;-76
2023/03/31 11:10:58;;;;;;;3.17;2.93;;;16.20;99.90;;;;;;5092639;28;20918;-77
2023/03/31 11:13:32;;;;;;;5.30;4.77;;;16.20;99.90;;;;;;5092694;28;20465;-78
2023/03/31 11:16:11;;;;;;;5.77;4.17;;;16.40;99.90;;;;;;5092693;28;20860;-77
2023/03/31 11:19:00;;;;;;;3.70;3.40;;;16.50;99.90;;;;;;5093263;28;20982;-76
2023/03/31 11:21:36;;;;;;;3.80;2.90;;;16.50;99.90;;;;;;5081652;28;20508;-77
2023/03/31 11:24:11;;;;;;;3.90;2.47;;;16.60;99.90;;;;;;5083117;28;20529;-77
2023/03/31 11:26:48;;;;;;;2.30;2.07;;;16.60;99.90;;;;;;5092191;28;20526;-78
2023/03/31 11:29:30;;;;;;;9.27;6.80;;;16.60;99.90;;;;;;5095610;28;20473;-77
2023/03/31 11:32:08;;;;;;;4.17;3.37;;;16.70;99.90;;;;;;5102684;28;21237;-77
2023/03/31 11:34:57;;;;;;;7.70;6.13;;;16.70;99.90;;;;;;5100204;28;20465;-77
2023/03/31 11:37:40;;;;;;;5.30;4.03;;;16.80;99.90;;;;;;5104185;28;20469;-78
2023/03/31 11:40:19;;;;;;;4.77;3.20;;;16.80;99.90;;;;;;5115147;28;20449;-77
2023/03/31 11:42:52;;;;;;;4.40;3.70;;;16.80;99.90;;;;;;5105206;28;20469;-77
2023/03/31 11:45:23;;;;;;;7.67;2.93;;;16.80;99.90;;;;;;5095190;28;20461;-76
2023/03/31 11:47:56;;;;;;;4.57;2.57;;;16.80;99.90;;;;;;5093955;28;20822;-77
2023/03/31 11:50:29;;;;;;;4.50;3.30;;;16.90;99.90;;;;;;5094068;28;20469;-76
2023/03/31 11:53:02;;;;;;;3.03;2.03;;;16.90;99.90;;;;;;5091926;28;20523;-77
2023/03/31 11:55:31;;;;;;;9.10;3.07;;;16.90;99.90;;;;;;5092979;28;20466;-76
2023/03/31 11:58:04;;;;;;;3.77;2.90;;;16.90;99.90;;;;;;5091704;28;20470;-76
2023/03/31 12:00:35;;;;;;;5.03;1.90;;;16.90;99.90;;;;;;5092720;28;20481;-76
2023/03/31 12:03:09;;;;;;;3.70;2.27;;;16.80;99.90;;;;;;5092393;28;20461;-76
2023/03/31 12:05:42;;;;;;;3.93;2.27;;;16.90;99.90;;;;;;5092672;28;21041;-75
2023/03/31 12:08:15;;;;;;;6.83;2.27;;;16.90;99.90;;;;;;5092032;28;20484;-76
2023/03/31 12:10:48;;;;;;;6.33;2.47;;;16.90;99.90;;;;;;5092787;28;20622;-76
2023/03/31 12:13:34;;;;;;;5.37;2.47;;;16.90;99.90;;;;;;5092111;28;20493;-76
2023/03/31 12:16:06;;;;;;;3.10;2.57;;;16.80;99.90;;;;;;5092443;28;20488;-77
2023/03/31 12:18:39;;;;;;;6.93;3.03;;;16.80;99.90;;;;;;5092751;28;20500;-76
2023/03/31 12:21:07;;;;;;;8.60;2.83;;;16.70;99.90;;;;;;5091532;28;20487;-75
2023/03/31 12:23:41;;;;;;;7.33;4.57;;;16.70;99.90;;;;;;5097790;28;20548;-76
2023/03/31 12:26:18;;;;;;;3.30;3.00;;;16.60;99.90;;;;;;5091947;28;20488;-77
2023/03/31 12:28:47;;;;;;;4.60;3.80;;;16.50;99.90;;;;;;5091568;28;20525;-76
2023/03/31 12:31:19;;;;;;;3.07;2.47;;;16.40;99.90;;;;;;5091957;28;20530;-76
2023/03/31 12:33:51;;;;;;;9.67;4.33;;;16.40;99.90;;;;;;5092496;28;20461;-75
2023/03/31 12:36:29;;;;;;;5.13;3.10;;;16.40;99.90;;;;;;5091240;28;20832;-75
2023/03/31 12:39:11;;;;;;;5.10;3.17;;;16.30;99.90;;;;;;5090607;28;20541;-77
2023/03/31 12:41:44;;;;;;;9.30;5.50;;;16.40;99.90;;;;;;5087762;28;20780;-76
2023/03/31 12:44:36;;;;;;;3.50;3.00;;;16.30;99.90;;;;;;5101594;28;20590;-75
2023/03/31 12:47:22;;;;;;;5.57;3.17;;;16.30;99.90;;;;;;5095370;28;20579;-76
2023/03/31 12:50:02;;;;;;;2.63;2.13;;;16.30;99.90;;;;;;5095618;28;20480;-76
2023/03/31 12:52:39;;;;;;;5.10;2.30;;;16.30;99.90;;;;;;5095691;28;20530;-77
2023/03/31 12:55:31;;;;;;;7.03;3.70;;;16.30;99.90;;;;;;5095696;28;21214;-76
2023/03/31 12:58:33;;;;;;;5.40;2.87;;;16.30;99.90;;;;;;5096012;28;20526;-76
2023/03/31 13:01:08;;;;;;;4.63;3.67;;;16.30;99.90;;;;;;5095420;28;20469;-76
2023/03/31 13:03:45;;;;;;;3.20;2.90;;;16.20;99.90;;;;;;5095999;28;20484;-76
2023/03/31 13:09:56;;;;;;;2.37;2.17;;;16.00;99.90;;;;;;5078850;28;20472;-77
2023/03/31 13:12:30;;;;;;;2.77;1.93;;;15.90;99.90;;;;;;5095916;28;20465;-77
2023/03/31 13:14:59;;;;;;;2.50;2.00;;;15.80;99.90;;;;;;5095878;28;21035;-76